BLOG

LUXURY FLIGHT

080-7560-1817

羽田空港本店: 所在地: 東京都大田区羽田空港3-3-2    セントレア店: 所在地: 愛知県常滑市セントレア1-1      HICityファイター店: 所在地: 東京都大田区羽田空港1-1-4
           第1旅客ターミナル5階                  FLIGHT OF DREAMS FLIGHT PARK                 HANEDA INNOVATION CITY ZONE-J 2-5
      営業時間: 10:00~20:00 定休日: 年中無休         営業時間: 10:00~20:00 定休日: 年中無休             営業時間: 10:00~20:00 定休日: 年中無休
      電話番号: 080-7560-1817                  電話番号: 080-4945-5666                     電話番号: 03-5579-7980

lv

BLOG

ph

BLOG

2020年9月17日貴方は、もう…

中部よりこんにちはーーー!   RJGG 170330Z 19004KT 9999 FEW010 SCT015 BKN/// 27/23 Q1011 NOSIG   本日ご紹介させていただくのは、 先日、地元・知多市からお越しのFさま! &nb...

2020年9月16日AOG!!!!

      こんにちはーーーー お久しぶりの羽田空港本店です!!!     現在のMETARは… RJTT 160100Z 04007KT 9999 FEW015 BKN080 24/2...

2020年9月15日伊丹で友情フライト!

中部より、おはようございまーーーすっっ!!   RJGG 150030Z 33008KT 9999 FEW030 BKN/// 24/16 Q1013 NOSIG 今朝は蒸し暑さはおやすみで、ちょっぴり秋の涼しさ、訪れを感じます!   本日ご紹介させ...

2020年9月12日瓶コーラ!美味い!

こんにちは〜ファイター店でございやす!!   先日、ファイター店にこんなものを導入しました   ジャジャーン     懐かしの瓶コーラ(ゼロコーラもあります)   +   瓶ファンタグレー...

2020年9月12日過去から未来へステップアップ!!

セントレアから〜おはようございますっっっ!!!   RJGG 120000Z 10011KT 9999 FEW015 SCT050 BKN/// 29/22 Q1012 NOSIG 薄雲で直射日光がなく、そよ風で涼しい朝でございました!   本日ご紹...

2020年9月9日ハードランディング後のお約束

こんにちはーーーー   こちらも久方振りの羽田空港本店でございます   13:00現在の羽田METARは…   RJTT 090330Z 18015KT 9999 FEW025 32/24 Q1012 NOSIG RMK 1C...

2020年9月9日STOVLで楽しむ

こんにちは〜   少々ご無沙汰してしまいました、ファイター店ブログ!!   本日ご紹介のお客様は、F35にてドローンを撃墜し、その後空母への着艦チャレンジ     ドローンを撃墜することも簡単ではないのですが、...

2020年9月8日天気じめじめ〜心さわやか♪♪♪

中部よりこんばんはーーー!!   RJGG 080800Z 15011KT 9999 FEW015 29/24 Q1014 NOSIG 予報が外れ、久しぶりの晴れ ただ、湿度が高く、じめじめまさに残暑ですねー   本日ご紹介させていただくのは、...

2020年9月7日新・旅客機キャンペーン開催します!!【羽田&セントレア両店舗】

2020年9月7日更新   いつも弊社サービスをご利用いただきまして 誠にありがとうございます。   早速でございますが、表題の通り 「羽田空港本店・セントレア店」 両店のキャンペーンを開催させていただきまーーす   ...

2020年9月5日そうだ!ハワイで飛ぼう!!

中部セントレアより、こんばんはー!!   AF RJGG 050505Z 0506/0612 14010KT 9999 FEW015 SCT030 BECMG 0513/0515 06005KT TEMPO 0514/0518 4000 TSRA BR FEW008 BKN...

TOP